Elk Springs, Colorado
Current Conditions -  °F | °C
As of 10:53 AM on Sunday 25 Jan 2015 (Local Time) from KEEO Reporting Station
Clear Clear  
Wind Chill: 27°   Ceiling: Unl
Heat Index: 27°   Visibility: 10mi
Dew Point: 17°   Wind: 0mph
Humidity: 66%   Direction: NA
Pressure: 30.4"   Gusts: NA
Location:  40.3181°N, 108.361°W
Report Text: KEEO 251753Z AUTO 00000KT 10SM CLR M03/M08 A3040 RMK AO2 SLP339 I6000 T10281083 11028 21122 53002
Loading
Personal Weather Stations






























Interactive Weather Map New forecast layout! Learn more

10-Day Weather Forecast

Advertisements
Track Severe Weather on mobile